Airfield :
LOGIN :

Register | Disclaimer

   EN    FR    IT 

 










Legend :    VFR   Marginal VFR   IFR   Intensive IFR   Very Intensive IFR
Visi :
Ceiling :
>= 8 km
>= 3000ft
5 to 8 km
1000 to 3000 ft
1500m to 5 km
500 to 1000 ft
800 to 1500m
200 to 500 ft
< 800m
< 200 ft
Symbols :   Thunderstorms  Fog  Heavy snow  Heavy precipitations  Wind > 20 kt
SIGMETs :     Misc.  Thunderstorms  Icing  Turbulence  Mountain Waves  Volcanic Ashes







- Airport Elevation : 870 ft
- IATA code : ETZ
- Download approach charts


LFJL - Metz Nancy Lorraine

CURRENT METAR :
  • 222130Z AUTO 00000KT CAVOK 16/14 Q1014 TEMPO 4000 SHRA SCT050CB

EXPIRED METARs :
  • 222100Z AUTO 34004KT CAVOK 17/14 Q1014 TEMPO 4000 SHRA SCT050CB
  • 222030Z AUTO 30003KT 260V330 CAVOK 17/13 Q1014 TEMPO 4000 SHRA SCT050CB
  • 222000Z AUTO 31003KT CAVOK 17/13 Q1014 TEMPO 4000 SHRA SCT050CB
  • 221930Z AUTO 32003KT CAVOK 17/13 Q1013 TEMPO 4000 SHRA SCT050CB
  • 221900Z AUTO VRB03KT CAVOK 17/14 Q1013 TEMPO 4000 SHRA SCT050CB

TAF TAF LFJL
Valid from the 22 at 18:00 until the 23 at 18:00 UTC


221700Z 2218/2318 32005KT CAVOK
TEMPO 2218/2223 4000 SHRA SCT050CB
PROB40
TEMPO 2218/2220 VRB12G22KT 2000 TSRA
PROB40
TEMPO 2301/2308 4000 BR BKN004
PROB30
TEMPO 2302/2306 0500 FG VV///
BECMG 2309/2311 FEW050CB
TEMPO 2311/2318 4000 SHRA SCT050CB
PROB40
TEMPO 2314/2318 VRB10G20KT 2000 TSRA
No reported NOTAMs for that airfield.
1 SIGMET reported for the Reims FIR (LFEE) :
 
Embedded thunderstorms
LFEE SIGMET 2 VALID 222050/222200 LFPW
LFEE REIMS FIR/UIR EMBD TS OBS S OF N4700 AND W OF E00530 TOP FL320 MOV E 10KT NC=



MET'MAP, your aeronautical weather chart ! - Copyright ORBIFLY December 2007 - Disclaimer

ORBIFLY MET'MAP TEAM :

Programming & Development : Alexandra Zaïnal
Concept & Development : Baudouin d'Aumeries
Co-Development & Prog : Marc-Olivier Méhu
Technical & hardware support : Manuel Goepfert

Contact : metmap@orbifly.com




SOURCES & CREDITS :

   NOAA